Etusivu
METAR-TAF:

METAR-TAF

Lentoasemat :

Jackson Municipal Airport

Jackson, Minnesota, Yhdysvallat

Leveyspiiri: 43-39N, Pituuspiiri: 094-59W, korkeus merenpinnasta: 441 m

Tämänhetkinen sää

Tämä raportti tehtiin 27 minuuttia sitten, kello 21.55 UTC
Tuuli 22 kn luoteesta puuskistuen 25 kn:hen
Lämpötila -11°C
Kosteus 72%
Ilmanpaine 1035 hPa
Näkyvyys: 4.8 km
Hajanaisia pilviä 800 ft:n korkeudessa
Hajanaisia pilviä 1400 ft:n korkeudessa
Hajonneita pilviä 2000 ft:n korkeudessa
heikkoa lumisadetta

METAR: KMJQ 112155Z AUTO 32022G25KT 3SM -SN SCT008 SCT014 BKN020 M11/M15 A3056 RMK AO2

Aika: 16:22 (22:22 UTC)


TAF: puuttuu

Säähavainnot ja -ennusteet yli 4000 lentoasemalta (METAR- ja TAF-raportit).

Käytössä olevat sääasemat on merkitty karttaan keltaisilla ja punaisilla pisteillä.

Aseta hiiri pisteen päälle nähdäksesi sääaseman nimen.

Klikkaa sitten nähdäksesi säähavainnot ja -ennusteet.

Kartan vaihtaminen: klikkaa mustalla rastilla varustettuja vihreitä pisteitä, niin voit zoomata sisään; viivalla varustettua vihreää pistettä, niin voit zoomata ulos tai vihreitä nuolia, niin pääset viereisille kartoille.


METAR-TAF: